createdAt,value
2023-05-19T00:08:40.316Z,5.95
2023-05-19T00:11:17.603Z,5.05
2023-05-19T00:14:04.953Z,6.60
2023-05-19T00:16:37.407Z,4.78
2023-05-19T00:19:13.402Z,3.55
2023-05-19T00:21:50.114Z,3.70
2023-05-19T00:24:25.450Z,4.88
2023-05-19T00:27:02.750Z,5.68
2023-05-19T00:29:42.549Z,4.72
2023-05-19T00:32:13.838Z,5.03
2023-05-19T00:34:45.846Z,5.35
2023-05-19T00:40:11.136Z,4.53
2023-05-19T00:42:48.400Z,6.35
2023-05-19T00:48:04.791Z,5.22
2023-05-19T00:50:40.401Z,6.07
2023-05-19T00:55:57.577Z,5.50
2023-05-19T00:58:29.510Z,5.10
2023-05-19T01:01:10.009Z,4.85
2023-05-19T01:03:46.578Z,3.33
2023-05-19T01:06:22.233Z,3.65
2023-05-19T01:09:09.279Z,4.25
2023-05-19T01:11:41.276Z,5.85
2023-05-19T01:14:22.528Z,5.43
2023-05-19T01:17:16.078Z,4.72
2023-05-19T01:19:57.839Z,4.15
2023-05-19T01:22:56.874Z,3.08
2023-05-19T01:26:06.040Z,3.95
2023-05-19T01:29:05.061Z,3.65
2023-05-19T01:31:40.406Z,4.57
2023-05-19T01:34:13.539Z,3.53
2023-05-19T01:36:48.549Z,3.58
2023-05-19T01:39:32.401Z,3.88
2023-05-19T01:42:05.146Z,5.22
2023-05-19T01:44:35.899Z,4.45
2023-05-19T01:49:58.511Z,3.75
2023-05-19T01:52:31.303Z,4.03
2023-05-19T01:54:59.929Z,3.15
2023-05-19T01:57:43.389Z,4.28
2023-05-19T02:00:21.435Z,4.97
2023-05-19T02:06:33.552Z,3.30
2023-05-19T02:09:15.702Z,2.83
2023-05-19T02:11:56.683Z,4.90
2023-05-19T02:14:48.892Z,3.53
2023-05-19T02:17:26.886Z,2.85
2023-05-19T02:20:07.521Z,2.63
2023-05-19T02:22:38.246Z,4.38
2023-05-19T02:25:09.399Z,2.83
2023-05-19T02:27:42.835Z,3.33
2023-05-19T02:30:15.444Z,3.30
2023-05-19T02:32:46.953Z,3.17
2023-05-19T02:38:00.141Z,3.15
2023-05-19T02:40:35.885Z,2.35
2023-05-19T02:43:13.588Z,2.65
2023-05-19T02:45:44.612Z,3.13
2023-05-19T02:48:15.899Z,2.67
2023-05-19T02:50:55.046Z,2.35
2023-05-19T02:53:40.921Z,2.78
2023-05-19T02:56:14.101Z,3.38
2023-05-19T02:58:45.085Z,3.15
2023-05-19T03:01:19.693Z,2.42
2023-05-19T03:04:03.744Z,2.17
2023-05-19T03:06:36.478Z,2.72
2023-05-19T03:09:07.797Z,3.10
2023-05-19T03:11:43.159Z,2.50
2023-05-19T03:17:12.138Z,2.25
2023-05-19T03:19:46.089Z,2.92
2023-05-19T03:22:14.818Z,2.58
2023-05-19T03:24:51.829Z,2.45
2023-05-19T03:27:22.619Z,3.05
2023-05-19T03:30:09.825Z,3.88
2023-05-19T03:32:45.100Z,2.35
2023-05-19T03:35:14.023Z,2.38
2023-05-19T03:37:49.098Z,3.47
2023-05-19T03:40:27.136Z,2.78
2023-05-19T03:43:06.713Z,3.15
2023-05-19T03:45:55.272Z,2.28
2023-05-19T03:48:27.433Z,3.67
2023-05-19T03:51:04.226Z,2.20
2023-05-19T03:53:34.172Z,2.90
2023-05-19T03:56:23.701Z,3.45
2023-05-19T03:58:58.096Z,2.88
2023-05-19T04:01:33.288Z,2.13
2023-05-19T04:04:18.277Z,2.05
2023-05-19T04:06:51.014Z,2.88
2023-05-19T04:09:30.846Z,2.42
2023-05-19T04:15:06.999Z,3.40
2023-05-19T04:17:35.831Z,1.98
2023-05-19T04:20:18.699Z,2.08
2023-05-19T04:22:53.266Z,2.40
2023-05-19T04:25:36.801Z,2.17
2023-05-19T04:28:25.062Z,2.13
2023-05-19T04:31:01.375Z,2.35
2023-05-19T04:33:34.020Z,1.85
2023-05-19T04:36:08.730Z,1.90
2023-05-19T04:44:21.167Z,1.80
2023-05-19T04:46:58.178Z,2.58
2023-05-19T04:49:47.011Z,1.95
2023-05-19T04:55:18.837Z,2.28
2023-05-19T04:57:49.433Z,2.67
2023-05-19T05:00:37.507Z,2.30
2023-05-19T05:03:11.750Z,2.30
2023-05-19T05:05:46.226Z,2.00
2023-05-19T05:08:23.276Z,2.70
2023-05-19T05:11:02.535Z,1.65
2023-05-19T05:13:32.968Z,3.38
2023-05-19T05:16:20.501Z,2.20
2023-05-19T05:18:53.017Z,1.92
2023-05-19T05:21:25.190Z,2.72
2023-05-19T05:24:14.413Z,1.77
2023-05-19T05:32:37.551Z,1.20
2023-05-19T05:35:15.350Z,1.73
2023-05-19T05:37:44.807Z,2.28
2023-05-19T05:43:13.918Z,2.38
2023-05-19T05:45:48.827Z,2.25
2023-05-19T05:51:23.807Z,1.63
2023-05-19T05:53:53.827Z,1.90
2023-05-19T05:56:22.484Z,1.70
2023-05-19T05:58:50.510Z,2.35
2023-05-19T06:01:18.158Z,2.15
2023-05-19T06:03:45.999Z,1.90
2023-05-19T06:06:14.489Z,3.08
2023-05-19T06:08:43.449Z,1.67
2023-05-19T06:11:11.079Z,1.90
2023-05-19T06:13:41.204Z,2.65
2023-05-19T06:16:09.036Z,2.03
2023-05-19T06:18:36.792Z,2.60
2023-05-19T06:21:04.633Z,2.08
2023-05-19T06:23:33.683Z,1.92
2023-05-19T06:26:02.633Z,2.08
2023-05-19T06:28:30.292Z,1.77
2023-05-19T06:30:58.463Z,2.17
2023-05-19T06:33:28.863Z,2.17
2023-05-19T06:35:56.831Z,1.55
2023-05-19T06:38:24.481Z,3.42
2023-05-19T06:40:52.077Z,2.10
2023-05-19T06:43:21.058Z,1.85
2023-05-19T06:45:48.630Z,2.28
2023-05-19T06:48:16.233Z,1.77
2023-05-19T06:50:43.982Z,1.90
2023-05-19T06:53:11.569Z,2.38
2023-05-19T06:55:47.233Z,2.50
2023-05-19T06:58:26.855Z,2.65
2023-05-19T07:00:54.531Z,1.98
2023-05-19T07:03:22.269Z,1.52
2023-05-19T07:05:49.972Z,1.73
2023-05-19T07:08:17.578Z,2.13
2023-05-19T07:10:45.198Z,2.15
2023-05-19T07:13:12.770Z,5.18
2023-05-19T07:15:41.701Z,1.73
2023-05-19T07:18:09.346Z,2.30
2023-05-19T07:20:36.981Z,2.67
2023-05-19T07:23:05.204Z,3.20
2023-05-19T07:25:33.294Z,3.10
2023-05-19T07:28:00.885Z,2.72
2023-05-19T07:30:29.561Z,1.98
2023-05-19T07:32:58.507Z,1.73
2023-05-19T07:35:27.040Z,2.40
2023-05-19T07:37:54.620Z,1.50
2023-05-19T07:40:22.232Z,1.92
2023-05-19T07:42:50.557Z,1.80
2023-05-19T07:45:18.256Z,2.40
2023-05-19T07:47:45.912Z,2.25
2023-05-19T07:50:14.918Z,1.90
2023-05-19T07:52:42.545Z,2.53
2023-05-19T07:55:10.207Z,1.95
2023-05-19T07:57:37.807Z,1.95
2023-05-19T08:00:11.458Z,1.95
2023-05-19T08:02:39.277Z,2.03
2023-05-19T08:05:09.149Z,1.33
2023-05-19T08:07:38.209Z,1.42
2023-05-19T08:10:06.238Z,1.75
2023-05-19T08:12:33.847Z,1.88
2023-05-19T08:15:01.955Z,2.25
2023-05-19T08:17:29.671Z,2.78
2023-05-19T08:19:57.273Z,2.03
2023-05-19T08:22:24.865Z,1.88
2023-05-19T08:24:53.928Z,1.42
2023-05-19T08:27:21.492Z,2.55
2023-05-19T08:29:49.091Z,2.03
2023-05-19T08:32:17.333Z,4.15
2023-05-19T08:34:44.923Z,2.05
2023-05-19T08:37:13.103Z,2.08
2023-05-19T08:39:40.850Z,1.60
2023-05-19T08:42:10.046Z,2.75
2023-05-19T08:44:39.870Z,2.22
2023-05-19T08:47:13.833Z,1.58
2023-05-19T08:49:45.934Z,3.03
2023-05-19T08:52:23.470Z,2.70
2023-05-19T08:57:25.930Z,1.92
2023-05-19T08:59:55.397Z,1.67
2023-05-19T09:02:23.915Z,2.15
2023-05-19T09:04:51.819Z,2.67
2023-05-19T09:07:19.760Z,4.70
2023-05-19T09:09:47.694Z,3.65
2023-05-19T09:12:15.485Z,3.00
2023-05-19T09:14:45.107Z,4.88
2023-05-19T09:17:12.848Z,3.55
2023-05-19T09:19:44.818Z,5.57
2023-05-19T09:22:12.578Z,4.45
2023-05-19T09:24:40.706Z,3.53
2023-05-19T09:27:08.424Z,3.78
2023-05-19T09:29:36.028Z,3.72
2023-05-19T09:32:06.007Z,3.95
2023-05-19T09:34:33.705Z,4.00
2023-05-19T09:37:01.280Z,5.30
2023-05-19T09:39:28.926Z,5.47
2023-05-19T09:41:58.488Z,5.20
2023-05-19T09:44:29.226Z,4.38
2023-05-19T09:47:11.798Z,5.30
2023-05-19T09:49:50.205Z,4.72
2023-05-19T09:52:18.183Z,3.90
2023-05-19T09:54:46.222Z,5.03
2023-05-19T09:57:14.276Z,5.90
2023-05-19T09:59:42.932Z,4.93
2023-05-19T10:02:17.649Z,4.50
2023-05-19T10:04:47.266Z,3.25
2023-05-19T10:07:17.509Z,6.53
2023-05-19T10:09:46.918Z,4.03
2023-05-19T10:12:14.652Z,3.53
2023-05-19T10:14:42.484Z,5.35
2023-05-19T10:17:13.148Z,3.42
2023-05-19T10:19:42.093Z,3.70
2023-05-19T10:22:09.672Z,3.95
2023-05-19T10:24:37.286Z,3.25
2023-05-19T10:27:09.666Z,4.30
2023-05-19T10:29:40.981Z,5.55
2023-05-19T10:35:11.483Z,3.30
2023-05-19T10:37:46.490Z,4.60
2023-05-19T10:40:23.063Z,4.55
2023-05-19T10:43:07.265Z,2.97
2023-05-19T10:45:41.526Z,4.22
2023-05-19T10:48:12.181Z,5.97
2023-05-19T10:50:41.195Z,4.20
2023-05-19T10:53:17.989Z,3.38
2023-05-19T10:55:48.038Z,4.75
2023-05-19T10:58:15.805Z,3.75
2023-05-19T11:00:43.498Z,6.22
2023-05-19T11:03:15.372Z,2.17
2023-05-19T11:05:45.635Z,6.45
2023-05-19T11:08:13.893Z,4.13
2023-05-19T11:10:44.789Z,3.03
2023-05-19T11:13:22.705Z,5.47
2023-05-19T11:15:50.864Z,3.67
2023-05-19T11:18:20.510Z,3.60
2023-05-19T11:20:58.545Z,4.65
2023-05-19T11:23:26.808Z,5.22
2023-05-19T11:25:54.710Z,4.15
2023-05-19T11:28:25.917Z,5.13
2023-05-19T11:30:57.758Z,3.55
2023-05-19T11:33:27.797Z,5.15
2023-05-19T11:35:58.944Z,4.38
2023-05-19T11:38:28.076Z,3.58
2023-05-19T11:40:56.401Z,4.00
2023-05-19T11:43:25.159Z,4.45
2023-05-19T11:45:54.173Z,5.47
2023-05-19T11:48:22.443Z,3.53
2023-05-19T11:50:50.785Z,3.60
2023-05-19T11:53:20.867Z,4.30
2023-05-19T11:55:49.811Z,6.55
2023-05-19T11:58:17.928Z,5.35
2023-05-19T12:00:47.757Z,3.33
2023-05-19T12:03:17.280Z,4.10
2023-05-19T12:05:47.571Z,2.72
2023-05-19T12:08:17.419Z,2.60
2023-05-19T12:10:50.391Z,3.58
2023-05-19T12:13:18.132Z,4.18
2023-05-19T12:15:45.736Z,3.78
2023-05-19T12:18:13.444Z,4.63
2023-05-19T12:20:41.414Z,4.53
2023-05-19T12:23:09.694Z,4.65
2023-05-19T12:25:38.243Z,4.95
2023-05-19T12:28:08.091Z,3.80
2023-05-19T12:30:35.993Z,3.83
2023-05-19T12:33:04.406Z,3.80
2023-05-19T12:35:33.474Z,5.90
2023-05-19T12:38:04.524Z,3.35
2023-05-19T12:40:32.757Z,4.95
2023-05-19T12:43:00.563Z,3.85
2023-05-19T12:45:29.648Z,4.18
2023-05-19T12:47:57.652Z,3.75
2023-05-19T12:50:31.530Z,4.85
2023-05-19T12:53:00.099Z,3.35
2023-05-19T12:55:27.876Z,3.05
2023-05-19T12:57:57.816Z,3.17
2023-05-19T13:00:28.960Z,4.35
2023-05-19T13:03:00.649Z,4.57
2023-05-19T13:05:29.165Z,2.97
2023-05-19T13:07:58.305Z,3.63
2023-05-19T13:10:27.877Z,4.60
2023-05-19T13:12:56.054Z,2.15
2023-05-19T13:15:26.052Z,3.30
2023-05-19T13:17:54.800Z,3.25
2023-05-19T13:20:26.268Z,4.05
2023-05-19T13:22:55.323Z,3.42
2023-05-19T13:25:22.909Z,2.58
2023-05-19T13:27:51.346Z,1.92
2023-05-19T13:30:20.856Z,2.78
2023-05-19T13:32:48.620Z,3.15
2023-05-19T13:35:17.327Z,2.50
2023-05-19T13:37:46.362Z,2.10
2023-05-19T13:40:15.598Z,2.85
2023-05-19T13:42:43.170Z,2.30
2023-05-19T13:45:11.217Z,3.22
2023-05-19T13:47:38.931Z,2.33
2023-05-19T13:50:07.912Z,2.90
2023-05-19T13:52:35.568Z,3.45
2023-05-19T13:55:04.992Z,2.25
2023-05-19T13:57:33.040Z,2.33
2023-05-19T14:00:03.316Z,2.13
2023-05-19T14:02:31.514Z,2.60
2023-05-19T14:04:59.471Z,3.63
2023-05-19T14:07:27.107Z,2.85
2023-05-19T14:09:55.241Z,2.90
2023-05-19T14:12:30.968Z,3.58
2023-05-19T14:15:04.960Z,3.22
2023-05-19T14:17:32.533Z,2.80
2023-05-19T14:20:01.105Z,2.40
2023-05-19T14:22:28.807Z,4.28
2023-05-19T14:24:56.613Z,4.35
2023-05-19T14:27:25.533Z,3.17
2023-05-19T14:29:53.081Z,5.07
2023-05-19T14:32:21.247Z,4.97
2023-05-19T14:34:52.645Z,3.93
2023-05-19T14:37:20.314Z,3.50
2023-05-19T14:39:47.987Z,4.15
2023-05-19T14:42:15.589Z,2.75
2023-05-19T14:44:44.506Z,2.75
2023-05-19T14:47:12.520Z,2.85
2023-05-19T14:49:40.290Z,1.27
2023-05-19T14:52:08.465Z,2.72
2023-05-19T14:54:36.069Z,3.35
2023-05-19T14:57:04.438Z,3.70
2023-05-19T14:59:32.043Z,3.22
2023-05-19T15:02:00.947Z,2.85
2023-05-19T15:04:28.653Z,5.43
2023-05-19T15:07:09.862Z,3.40
2023-05-19T15:09:38.534Z,3.70
2023-05-19T15:12:06.592Z,3.83
2023-05-19T15:14:34.309Z,3.03
2023-05-19T15:17:03.305Z,11.77
2023-05-19T15:19:31.123Z,4.28
2023-05-19T15:21:58.769Z,3.33
2023-05-19T15:24:26.682Z,4.85
2023-05-19T15:26:55.281Z,7.80
2023-05-19T15:29:22.886Z,2.92
2023-05-19T15:31:51.173Z,4.65
2023-05-19T15:34:20.184Z,7.47
2023-05-19T15:36:48.137Z,4.97
2023-05-19T15:39:16.548Z,8.23
2023-05-19T15:41:44.189Z,5.95
2023-05-19T15:44:11.964Z,7.25
2023-05-19T15:46:39.696Z,9.60
2023-05-19T15:49:07.291Z,13.05
2023-05-19T15:51:36.463Z,8.75
2023-05-19T15:54:04.167Z,7.78
2023-05-19T15:56:31.838Z,9.70
2023-05-19T15:58:59.453Z,5.00
2023-05-19T16:01:27.299Z,10.27
2023-05-19T16:03:54.944Z,5.15
2023-05-19T16:06:22.702Z,5.22
2023-05-19T16:08:51.603Z,6.13
2023-05-19T16:11:20.587Z,8.68
2023-05-19T16:13:48.152Z,5.72
2023-05-19T16:16:15.829Z,4.85
2023-05-19T16:18:44.121Z,5.80
2023-05-19T16:21:11.822Z,5.82
2023-05-19T16:23:39.445Z,7.13
2023-05-19T16:26:08.385Z,6.13
2023-05-19T16:28:35.968Z,3.70
2023-05-19T16:31:03.535Z,9.30
2023-05-19T16:33:31.077Z,5.75
2023-05-19T16:35:59.752Z,6.53
2023-05-19T16:38:27.874Z,7.25
2023-05-19T16:40:55.463Z,5.30
2023-05-19T16:43:24.495Z,3.40
2023-05-19T16:45:52.881Z,5.25
2023-05-19T16:48:20.579Z,6.18
2023-05-19T16:50:48.959Z,7.60
2023-05-19T16:53:16.545Z,5.22
2023-05-19T16:55:44.093Z,5.28
2023-05-19T16:58:11.852Z,5.60
2023-05-19T17:00:40.804Z,3.63
2023-05-19T17:03:08.467Z,3.42
2023-05-19T17:05:38.140Z,4.10
2023-05-19T17:08:06.188Z,4.47
2023-05-19T17:10:34.090Z,2.95
2023-05-19T17:13:02.022Z,5.38
2023-05-19T17:15:29.593Z,3.03
2023-05-19T17:17:58.521Z,3.58
2023-05-19T17:20:26.134Z,3.63
2023-05-19T17:22:53.684Z,2.75
2023-05-19T17:25:21.344Z,4.78
2023-05-19T17:27:48.892Z,3.25
2023-05-19T17:30:17.395Z,4.13
2023-05-19T17:32:45.076Z,4.28
2023-05-19T17:35:14.035Z,3.55
2023-05-19T17:37:41.732Z,3.70
2023-05-19T17:40:10.498Z,3.25
2023-05-19T17:42:38.086Z,3.80
2023-05-19T17:45:07.473Z,4.18
2023-05-19T17:47:35.098Z,2.53
2023-05-19T17:50:02.745Z,3.95
2023-05-19T17:52:32.828Z,4.15
2023-05-19T17:55:00.883Z,3.20
2023-05-19T17:57:32.177Z,4.28
2023-05-19T18:00:00.503Z,5.55
2023-05-19T18:02:28.725Z,3.97
2023-05-19T18:04:56.995Z,3.63
2023-05-19T18:07:26.218Z,3.08
2023-05-19T18:09:56.965Z,3.20
2023-05-19T18:12:24.534Z,4.25
2023-05-19T18:14:52.155Z,4.57
2023-05-19T18:17:19.736Z,5.07
2023-05-19T18:19:47.612Z,3.38
2023-05-19T18:22:15.268Z,3.55
2023-05-19T18:24:42.821Z,4.25
2023-05-19T18:27:11.738Z,5.78
2023-05-19T18:29:39.518Z,2.63
2023-05-19T18:32:07.848Z,3.25
2023-05-19T18:34:35.559Z,3.72
2023-05-19T18:37:03.188Z,3.03
2023-05-19T18:39:30.703Z,3.38
2023-05-19T18:41:58.367Z,2.03
2023-05-19T18:44:27.275Z,2.25
2023-05-19T18:46:54.845Z,3.10
2023-05-19T18:49:24.752Z,3.00
2023-05-19T18:51:52.469Z,3.50
2023-05-19T18:54:21.561Z,4.18
2023-05-19T18:56:49.220Z,3.63
2023-05-19T18:59:16.810Z,3.03
2023-05-19T19:01:45.999Z,2.70
2023-05-19T19:04:14.648Z,3.72
2023-05-19T19:06:43.821Z,4.30
2023-05-19T19:09:11.571Z,3.28
2023-05-19T19:11:39.253Z,3.15
2023-05-19T19:14:06.937Z,3.17
2023-05-19T19:16:34.914Z,3.67
2023-05-19T19:19:04.037Z,2.85
2023-05-19T19:21:31.690Z,2.53
2023-05-19T19:23:59.334Z,2.85
2023-05-19T19:26:28.891Z,3.65
2023-05-19T19:28:56.657Z,2.72
2023-05-19T19:31:25.742Z,3.90
2023-05-19T19:33:58.657Z,2.67
2023-05-19T19:36:27.906Z,2.03
2023-05-19T19:38:55.664Z,2.70
2023-05-19T19:41:23.223Z,2.70
2023-05-19T19:43:50.910Z,4.32
2023-05-19T19:46:18.646Z,2.88
2023-05-19T19:48:46.246Z,2.20
2023-05-19T19:51:13.925Z,2.65
2023-05-19T19:53:42.814Z,3.22
2023-05-19T19:56:10.514Z,2.35
2023-05-19T19:58:38.069Z,2.17
2023-05-19T20:01:06.231Z,2.90
2023-05-19T20:03:34.130Z,3.00
2023-05-19T20:06:02.043Z,3.28
2023-05-19T20:08:29.850Z,3.17
2023-05-19T20:10:58.772Z,2.47
2023-05-19T20:13:26.377Z,2.25
2023-05-19T20:15:54.200Z,3.80
2023-05-19T20:18:21.880Z,2.53
2023-05-19T20:20:49.463Z,3.13
2023-05-19T20:23:17.035Z,3.88
2023-05-19T20:25:58.934Z,2.63
2023-05-19T20:28:35.650Z,2.67
2023-05-19T20:31:03.264Z,4.30
2023-05-19T20:33:31.595Z,2.40
2023-05-19T20:35:59.163Z,2.00
2023-05-19T20:38:26.799Z,2.50
2023-05-19T20:40:54.803Z,2.05
2023-05-19T20:43:22.442Z,2.25
2023-05-19T20:45:52.189Z,2.47
2023-05-19T20:48:19.803Z,2.28
2023-05-19T20:50:47.492Z,2.63
2023-05-19T20:53:15.649Z,1.90
2023-05-19T20:55:45.334Z,3.83
2023-05-19T20:58:13.012Z,2.20
2023-05-19T21:00:40.698Z,2.28
2023-05-19T21:03:09.783Z,2.70
2023-05-19T21:05:37.439Z,2.13
2023-05-19T21:08:05.236Z,2.05
2023-05-19T21:10:32.957Z,1.92
2023-05-19T21:13:00.710Z,2.47
2023-05-19T21:15:28.256Z,2.25
2023-05-19T21:17:55.893Z,2.00
2023-05-19T21:20:25.891Z,2.97
2023-05-19T21:22:53.521Z,2.47
2023-05-19T21:25:21.134Z,4.88
2023-05-19T21:27:50.809Z,2.22
2023-05-19T21:30:18.608Z,2.00
2023-05-19T21:32:46.221Z,2.10
2023-05-19T21:35:13.813Z,2.30
2023-05-19T21:37:42.735Z,2.42
2023-05-19T21:40:10.997Z,2.40
2023-05-19T21:42:38.577Z,2.85
2023-05-19T21:45:07.442Z,1.85
2023-05-19T21:47:35.131Z,2.28
2023-05-19T21:50:02.834Z,2.58
2023-05-19T21:52:31.234Z,2.05
2023-05-19T21:55:00.221Z,2.15
2023-05-19T21:57:28.971Z,1.95
2023-05-19T21:59:56.544Z,2.33
2023-05-19T22:02:24.495Z,2.53
2023-05-19T22:04:52.176Z,2.25
2023-05-19T22:07:26.588Z,2.22
2023-05-19T22:09:54.250Z,3.17
2023-05-19T22:12:24.115Z,1.67
2023-05-19T22:14:51.755Z,2.10
2023-05-19T22:17:19.434Z,2.15
2023-05-19T22:19:47.022Z,3.60
2023-05-19T22:22:14.895Z,3.17
2023-05-19T22:24:42.563Z,2.88
2023-05-19T22:27:10.424Z,2.72
2023-05-19T22:29:39.391Z,1.83
2023-05-19T22:32:11.592Z,1.90
2023-05-19T22:34:39.485Z,2.17
2023-05-19T22:37:07.161Z,2.22
2023-05-19T22:39:34.743Z,2.58
2023-05-19T22:42:02.494Z,1.80
2023-05-19T22:44:30.061Z,2.45
2023-05-19T22:46:58.990Z,2.50
2023-05-19T22:49:27.370Z,1.90
2023-05-19T22:51:55.013Z,2.85
2023-05-19T22:54:22.627Z,3.40
2023-05-19T22:56:50.256Z,1.65
2023-05-19T22:59:18.432Z,1.92
2023-05-19T23:01:47.052Z,2.90
2023-05-19T23:04:16.142Z,2.13
2023-05-19T23:06:44.085Z,2.80
2023-05-19T23:09:11.767Z,2.15
2023-05-19T23:11:39.493Z,3.97
2023-05-19T23:14:07.101Z,2.47
2023-05-19T23:16:34.812Z,2.45
2023-05-19T23:19:02.490Z,1.90
2023-05-19T23:21:32.433Z,2.13
2023-05-19T23:24:00.057Z,2.47
2023-05-19T23:26:27.850Z,2.08
2023-05-19T23:28:55.451Z,2.17
2023-05-19T23:31:23.068Z,1.85
2023-05-19T23:33:50.779Z,2.17
2023-05-19T23:36:19.176Z,2.17
2023-05-19T23:38:48.142Z,2.17
2023-05-19T23:41:15.814Z,2.35
2023-05-19T23:43:43.366Z,2.88
2023-05-19T23:46:11.052Z,1.75
2023-05-19T23:48:39.336Z,2.08
2023-05-19T23:51:07.716Z,2.55
2023-05-19T23:53:35.358Z,2.53
2023-05-19T23:56:04.318Z,2.33
2023-05-19T23:58:31.907Z,2.00
